Horacio Farfan

Olheiro-Chefe - Deportivo Municipal
3 Dez 2028
Domingo
Processo

Personalidade

Adaptabilidade (17) Ambição (12) Controvérsia (20) Lealdade (18) Pressão (14) Profissionalismo (15) Espírito Esportivo (3) Temperamento (16)

Perfil

Estilo de Treinamento Democrático
Licença Continental A
Determinação 5
Gestão de Pessoas 6
Motivação 5
Disciplina 4
Satisfação no Trabalho
100%
Fadiga
0%
Função Olheiro-Chefe
Salário 33.1K p/s
Contrato 14.03.2029

Desempenho

Comportamento Bom
Eficácia do Treinamento
38%
Desenvolvimento do Jogador
50%
Prevenção de Lesões
30%
Implementação Tática
45%

Eventos Recentes

Participou de uma reunião de recrutamento 14d atrás
Avaliou um jogador 21d atrás
Participou de uma reunião de recrutamento 21d atrás
Avaliou um jogador 21d atrás
Avaliou um jogador 21d atrás
Avaliou um jogador 28d atrás
Avaliou um jogador 28d atrás
Avaliou um jogador 28d atrás

Monitorando agora

214
Jogador Clube Status Habilidade Confiança Observado Última observação Último voto
Iñaki Larthirigoyen San Telmo Ativo 117 / 119 40% 5 10.11.2028 -
Tomás Pozzo Godoy Cruz Ativo 126 / 126 40% 3 10.11.2028 -
Antonio Galeano Remo Stars Ativo 122 / 134 40% 3 10.11.2028 -
Emiliano Gómez Boston River Ativo 131 / 121 40% 7 07.11.2028 -
Leandro Suhr Boston River Ativo 123 / 117 40% 2 07.11.2028 -
Lautaro Disanto Defensores Unidos Ativo 110 / 105 40% 2 07.11.2028 -
Federico Álvarez Dinamo Tbilisi Ativo 110 / 103 40% 4 06.11.2028 -
Manuel Duarte Barracas Central Ativo 123 / 115 40% 2 06.11.2028 -
Agustín Colazo Unión de Santa Fe Ativo 128 / 126 40% 1 06.11.2028 -
John Córdoba Millonarios Ativo 116 / 123 40% 3 05.11.2028 -
Matías Sosa Arsenal Ativo 106 / 110 40% 1 05.11.2028 -
Luciano Cosentino Wanderers Ativo 121 / 130 40% 5 04.11.2028 -
Matías Machado Racing Ativo 120 / 109 40% 4 04.11.2028 -
Diego Gaitán Maipú Ativo 112 / 118 40% 3 02.11.2028 -
Facundo Lencioni Gimnasia y Esgrima Ativo 128 / 117 40% 1 02.11.2028 -
Rafael Moreno Atletico Venezuela Ativo 108 / 114 40% 4 31.10.2028 -
Yeferson Rodallega Envigado Ativo 119 / 117 40% 1 31.10.2028 -
Tomás Escalante River Plate Ativo 126 / 118 40% 1 31.10.2028 -
Alex Luna Instituto Ativo 140 / 137 40% 2 29.10.2028 -
Santiago Sala Güemes Ativo 110 / 112 40% 1 29.10.2028 -
Ramón González Almirante Brown Ativo 115 / 115 40% 1 29.10.2028 -
Johan Campaña Patriotas Ativo 115 / 116 40% 2 28.10.2028 -
Jefry Zapata Aldosivi Ativo 117 / 114 40% 1 28.10.2028 -
Miguel Ceccotti Güemes Ativo 115 / 101 40% 1 28.10.2028 -
Gastón Moreyra Almirante Brown Ativo 122 / 111 40% 3 27.10.2028 -
Enzo González Defensores Ativo 113 / 105 40% 5 27.10.2028 -
Pablo Cardona Cortulua Ativo 120 / 122 40% 2 27.10.2028 -
Enzo Silcan Almagro Ativo 119 / 113 40% 1 26.10.2028 -
Ramiro Hernandes Belgrano Ativo 120 / 120 40% 1 26.10.2028 -
Pedro Souto Temperley Ativo 112 / 109 40% 2 25.10.2028 -
Santiago Gutiérrez Alvarado Ativo 113 / 103 40% 2 25.10.2028 -
Alejo Dramisino Atlanta Ativo 117 / 126 40% 4 24.10.2028 -
Yeison Suárez Deportivo Pereira Ativo 116 / 119 40% 2 22.10.2028 -
Santiago Moyano Central Córdoba SdE Ativo 115 / 110 40% 2 22.10.2028 -
Vicente Poggi Godoy Cruz Ativo 127 / 129 40% 1 22.10.2028 -
Brayan Palmezano Deportivo Tachira Ativo 103 / 102 40% 4 19.10.2028 -
Tobías Leiva Estudiantes Ativo 116 / 117 40% 1 19.10.2028 -
Federico Versaci Talleres Ativo 121 / 109 40% 1 19.10.2028 -
Marco Miori Alvarado Ativo 113 / 116 40% 2 18.10.2028 -
Mauro Valiente Estudiantes Ativo 126 / 115 40% 4 17.10.2028 -
Rodrigo González Mitre Ativo 124 / 112 40% 1 17.10.2028 -
Francisco González Metilli Belgrano Ativo 130 / 121 40% 4 15.10.2028 -
Patricio Moyano Defensores Ativo 126 / 115 40% 5 15.10.2028 -
Agustín Morales Estudiantes Ativo 118 / 115 40% 3 15.10.2028 -
Alexander Díaz Deportivo Riestra Ativo 122 / 118 40% 1 14.10.2028 -
Daniel Barrea Godoy Cruz Ativo 122 / 121 40% 4 13.10.2028 -
Martín Campos Ferro Carril Oeste Ativo 118 / 118 40% 2 13.10.2028 -
Franco Zicarelli Colegiales Ativo 103 / 111 40% 1 13.10.2028 -
Gianluca Pugliese Güemes Ativo 120 / 105 40% 2 09.10.2028 -
Cesar Rubio Envigado Ativo 121 / 115 40% 1 09.10.2028 -
Mauricio Márquez Caracas Ativo 115 / 107 40% 3 07.10.2028 -
Matías Viguet Maipú Ativo 114 / 118 40% 4 07.10.2028 -
Luca Langoni Columbus Crew Ativo 125 / 134 40% 1 06.10.2028 -
Julián Vera Maipú Ativo 111 / 111 40% 1 06.10.2028 -
Tomás Ferreyra Defensores Unidos Ativo 108 / 111 40% 2 05.10.2028 -
Juan Sebastián Herrera Deportivo La Guaira Ativo 112 / 109 40% 4 04.10.2028 -
Alejo Cruz Juventud Ativo 129 / 117 40% 2 02.10.2028 -
Diego García Danubio Ativo 128 / 123 40% 1 29.09.2028 -
Franco Nicola Liverpool Montevideo Ativo 117 / 123 40% 2 28.09.2028 -
Federico Bisanz Atlanta Ativo 120 / 112 40% 2 28.09.2028 -
Emiliano Saliadarre Miramar Misiones Ativo 116 / 108 40% 1 26.09.2028 -
José Balza Deportivo Tachira Ativo 112 / 106 40% 1 26.09.2028 -
Yackson Rivas Deportivo La Guaira Ativo 115 / 105 40% 3 24.09.2028 -
Walter Núñez Montevideo City Torque Ativo 122 / 119 40% 1 24.09.2028 -
Bruno Leyes Godoy Cruz Ativo 133 / 132 40% 3 22.09.2028 -
Jerónimo Porto Lapegüe San Telmo Ativo 110 / 114 40% 2 22.09.2028 -
Nahuel Curcio Colón Ativo 118 / 123 40% 4 21.09.2028 -
Luis Olivera Defensores Unidos Ativo 112 / 116 40% 1 21.09.2028 -
Esteban Obregón Montevideo City Torque Ativo 127 / 128 40% 1 19.09.2028 -
Sebastián Jaurena San Martín SJ Ativo 118 / 119 40% 1 19.09.2028 -
Matías Ramírez Godoy Cruz Ativo 119 / 120 40% 1 17.09.2028 -
Yuber Quiñónes Patriotas Ativo 129 / 126 40% 2 16.09.2028 -
Allan Saint-Maximin Charlotte Football Club Ativo 142 / 145 40% 1 16.09.2028 -
Camilo Machado Madryn Ativo 107 / 100 40% 1 15.09.2028 -
César Magallan Estudiantes de Merida Ativo 103 / 111 40% 4 09.09.2028 -
Luis Palacios Once Caldas Ativo 120 / 114 40% 1 09.09.2028 -
Ángelo Lucena Carabobo Ativo 108 / 102 40% 2 08.09.2028 -
Carlos Cantillo Jaguares Ativo 119 / 112 40% 2 06.09.2028 -
Facundo Taborda Racing Ativo 117 / 107 40% 1 04.09.2028 -
Franco Vedoya Central Norte Ativo 119 / 117 40% 1 27.08.2028 -
José Barreto Quilmes Ativo 107 / 107 40% 2 25.08.2028 -
Nicolás Retamar Ferro Carril Oeste Ativo 119 / 114 40% 2 23.08.2028 -
Bernard Sulemana Ashanti Gold Ativo 122 / 126 40% 1 23.08.2028 -
Lautaro Calderón Asante Kotoko Ativo 101 / 99 40% 1 23.08.2028 -
Adrián Sánchez Belgrano Ativo 117 / 125 40% 1 17.08.2028 -
Job Ochieng Real Sociedad Ativo 105 / 110 40% 2 16.08.2028 -
Antonio Salado Ospitaletto Ativo 102 / 118 40% 1 15.08.2028 -
Cristian Gutiérrez Las Palmas Ativo 133 / 140 40% 1 15.08.2028 -
Simone Mazzocchi Cosenza Ativo 137 / 115 40% 1 12.08.2028 -
Alberto Solís Andorra Ativo 107 / 112 40% 1 12.08.2028 -
Camillo Tavernelli Arezzo Ativo 121 / 136 40% 1 12.08.2028 -
Ben Wiles Milton Keynes Dons Ativo 134 / 113 40% 1 09.08.2028 -
Jack Taylor Doncaster Rovers Ativo 137 / 145 40% 1 09.08.2028 -
Joe Powell Gillingham Ativo 123 / 118 40% 1 09.08.2028 -
Robert Alarcón Juan Aurich Ativo 72 / 88 62% 1 02.06.2028 -
Jean Pierre Vílchez Ayacucho Ativo 91 / 91 30% 1 / 1m 08.03.2028 -
Fabián Palomino Ayacucho Negociando 98 / 101 30% 1 / 1m 08.03.2028 -
Antonio Napolitano Agropecuario Argentino Ativo 122 / 116 40% 1 30.11.2027 -
Fernando Bersano Madryn Ativo 128 / 120 40% 1 30.11.2027 -
Anthony da Costa Artigas Ativo 71 / 88 40% 1 28.06.2027 -
Darlin Yongwa Norwich City Ativo 136 / 112 40% 1 22.06.2027 -
Kristoffer Lund Birmingham Ativo 139 / 139 40% 1 22.06.2027 -
Idris El Mizouni Leyton Orient Ativo 105 / 114 40% 1 31.05.2027 -
Alen Vukaj Alcione Milano Ativo 82 / 92 40% 1 30.05.2027 -
Lorenzo De Leo Renate Ativo 86 / 115 40% 1 25.05.2027 -
Fletcher Holman Swindon Town Ativo 76 / 97 40% 1 25.05.2027 -
Luke Baartman Ajax Cape Town Ativo 97 / 98 40% 1 24.05.2027 -
Luka Andrade Montevideo City Torque Ativo 96 / 110 40% 3 22.05.2027 -
Máximo Seggio Crawley Town Ativo 77 / 103 40% 2 21.05.2027 -
Sergey Guzyuk Strogino Ativo 57 / 53 40% 1 20.05.2027 -
Maren Kefas Plateau United Ativo 82 / 88 40% 1 20.05.2027 -
Borna Knezović Casarano Ativo 111 / 100 40% 3 19.05.2027 -
Nazif Inoussa Benfica Ativo 64 / 74 40% 1 18.05.2027 -
Abubakar Garba Nasarawa United Ativo 80 / 104 40% 2 17.05.2027 -
George Brown Sheffield Wednesday Ativo 88 / 119 40% 2 15.05.2027 -
Alagie Wally Veres Ativo 78 / 98 40% 1 13.05.2027 -
Ousseynou Seck Randers Ativo 119 / 112 40% 2 12.05.2027 -
Ben Ahmed Kohili Paradou Ativo 101 / 122 40% 2 12.05.2027 -
Naledi Hlongwane Wa All Stars Ativo 88 / 93 40% 2 10.05.2027 -
Dani Ángel Sampdoria Ativo 91 / 92 40% 1 08.05.2027 -
Chineme Chinonso Ikorodu City Ativo 97 / 103 40% 3 05.05.2027 -
Ahmed Khaled Paralimni Ativo 100 / 109 40% 2 04.05.2027 -
Nathan Mbala FC Metz Ativo 84 / 110 40% 1 30.04.2027 -
José Mendes Sporting CP Ativo 69 / 88 40% 1 29.04.2027 -
Ryan Oné Sheffield United Ativo 123 / 112 40% 2 23.04.2027 -
Darlvin Yeboah Bechem United Ativo 78 / 88 40% 2 23.04.2027 -
Godbless Ayeke AS Bakaridjan Ativo 85 / 81 40% 1 22.04.2027 -
Joseph George Aigle Royal de Moungo Ativo 97 / 81 40% 3 19.04.2027 -
Víctor Guzmán Sporting CP Ativo 79 / 106 40% 1 16.04.2027 -
Will Lankshear Middlesbrough Ativo 119 / 115 40% 1 11.04.2027 -
Mohammed Kamara CFR Cluj Ativo 135 / 113 40% 1 29.11.2026 -
Álex Centelles Levski Ativo 109 / 137 40% 1 28.11.2026 -
Assad Al Hamlawi Universitatea Craiova Ativo 105 / 132 40% 2 26.11.2026 -
Germán Berterame Inter Miami CF Ativo 124 / 118 40% 1 24.11.2026 -
Erik Botheim Viking Ativo 144 / 139 40% 3 23.11.2026 -
Jorge Gonzalez Viitorul Ativo 79 / 103 40% 1 22.11.2026 -
Luis Caicedo Spartak 1918 Ativo 87 / 88 40% 1 19.11.2026 -
Radek Šiler Podbrezova Ativo 108 / 113 40% 2 17.11.2026 -
Wessam Abou Ali Columbus Crew Ativo 127 / 138 40% 1 16.11.2026 -
Tio Cipot NK Maribor Ativo 122 / 111 40% 1 16.11.2026 -
Samuel Kalu Botev Plovdiv Ativo 120 / 107 40% 2 15.11.2026 -
Iván Angulo Orlando City Ativo 114 / 121 40% 1 15.11.2026 -
Alexandru Cicâldău Universitatea Craiova Ativo 114 / 122 40% 1 15.11.2026 -
Wandile Duba ASO Chlef Ativo 93 / 112 40% 1 15.11.2026 -
Kévin Denkey FC Cincinnati Ativo 126 / 116 40% 1 14.11.2026 -
Facundo Mura Inter Miami CF Ativo 133 / 112 40% 1 12.11.2026 -
David Miculescu FCSB Ativo 123 / 115 40% 1 12.11.2026 -
Renat Garayev AZAL Ativo 106 / 97 40% 1 11.11.2026 -
Armstrong Oko-Flex Levski Ativo 131 / 117 40% 1 11.11.2026 -
Jens Petter Hauge Bodo/Glimt Ativo 146 / 150 40% 1 10.11.2026 -
Lucas Souto Defensa y Justicia Ativo 115 / 118 40% 2 09.11.2026 -
Daniel Armstrong Dinamo Bucharest Ativo 112 / 111 40% 1 08.11.2026 -
Luciano Inverso Betis Ativo 118 / 124 40% 2 04.11.2026 -
Jaime Carreño Spartak Trnava Ativo 100 / 93 40% 1 04.11.2026 -
Emil Breivik Molde Ativo 119 / 128 40% 1 03.11.2026 -
Jáder Valencia Deportes Tolima Ativo 117 / 104 40% 1 30.10.2026 -
Sebastian Mailat Botosani Ativo 127 / 123 40% 1 27.10.2026 -
Thomas Carrique Andorra Ativo 119 / 128 40% 1 27.10.2026 -
Ole-Didrik Blomberg Bodo/Glimt Ativo 140 / 127 40% 1 26.10.2026 -
Erick Marcus Ludogorets Ativo 139 / 138 40% 1 25.10.2026 -
Junior Brítez Saburtalo Ativo 109 / 111 40% 1 25.10.2026 -
Genaro Rossi San Martín SJ Ativo 104 / 105 40% 2 24.10.2026 -
Alberto Benítez Villalba Torpedo Kutaisi Ativo 114 / 86 40% 1 24.10.2026 -
Lucas Palavecino Banfield Ativo 106 / 109 40% 1 23.10.2026 -
Marcelo Torres Gimnasia La Plata Ativo 127 / 128 40% 2 18.10.2026 -
Jeriel De Santis Caracas Ativo 102 / 109 40% 1 17.10.2026 -
Gaspar Duarte Rosario Central Ativo 111 / 116 40% 1 17.10.2026 -
Santiago Luján Huracán Ativo 119 / 120 40% 1 14.10.2026 -
Lechi Sadulaev Akhmat Grozny Ativo 108 / 131 40% 1 14.10.2026 -
Mohamed Konaté Akhmat Grozny Ativo 118 / 116 40% 1 10.10.2026 -
Alejandro Rincon Llaneros Ativo 107 / 99 40% 1 04.10.2026 -
Csanád Vilmos Dénes Debrecen Ativo 94 / 117 40% 1 04.10.2026 -
Pedro Silva Torrejón Gimnasia La Plata Ativo 108 / 110 40% 1 03.10.2026 -
Egas Cacintura Akhmat Grozny Ativo 125 / 121 40% 1 01.10.2026 -
Tyrhys Dolan Espanyol Ativo 150 / 153 40% 1 27.09.2026 -
Bautista Barros Schelotto Gimnasia La Plata Ativo 104 / 110 40% 1 27.09.2026 -
Yeferson Rincon Atletico Venezuela Ativo 95 / 105 40% 1 27.09.2026 -
Lucas González Nacional Ativo 117 / 103 40% 2 23.09.2026 -
Junior Paredes Trujillanos Ativo 88 / 102 40% 3 23.09.2026 -
Agustín Bianciotti Metropolitanos Ativo 103 / 97 40% 3 20.09.2026 -
Franco Torres Gimnasia La Plata Ativo 127 / 123 40% 1 20.09.2026 -
Paul Samson Plateau United Ativo 97 / 104 40% 1 20.09.2026 -
Angelo Marchese Tigre Ativo 111 / 101 40% 1 19.09.2026 -
Mauricio Cardillo San Lorenzo Ativo 111 / 126 40% 1 19.09.2026 -
Ronaldo Peña Deportivo Lara Ativo 108 / 109 40% 1 17.09.2026 -
Santiago Herrera Estudiantes de Caracas Ativo 82 / 90 40% 2 14.09.2026 -
Thiago Ponce Rosario Central Ativo 87 / 112 40% 1 09.09.2026 -
Umar Ada Nasarawa United Ativo 75 / 91 40% 1 09.09.2026 -
Daniel Karlsbakk Sarpsborg 08 Ativo 134 / 130 40% 2 08.09.2026 -
Ekain Orobengoa Real Sociedad Ativo 79 / 95 40% 1 08.09.2026 -
Ignacio Giacinti Patronato Ativo 93 / 97 40% 1 07.09.2026 -
Lautaro Cano Banfield Ativo 97 / 103 40% 1 07.09.2026 -
Tiago Benzi Belgrano Ativo 101 / 91 40% 1 06.09.2026 -
Rodrigo Pollero Deportivo Tachira Ativo 98 / 101 40% 1 05.09.2026 -
Brandon Hanlan Doncaster Rovers Ativo 89 / 93 40% 1 29.08.2026 -
Agustín Obregón River Plate Ativo 116 / 111 40% 1 28.08.2026 -
Alexis Steimbach Gimnasia La Plata Ativo 109 / 115 40% 1 28.08.2026 -
Adalberto Peñaranda Deportivo Tachira Ativo 115 / 104 40% 1 25.08.2026 -
Sergio Riffo Kolkheti Ativo 76 / 89 40% 1 25.08.2026 -
Fabricio Corbalán Gimnasia La Plata Ativo 109 / 118 40% 1 24.08.2026 -
Juan Camilo Pérez Carabobo Ativo 113 / 107 40% 1 24.08.2026 -
Matías Pellegrini Vélez Ativo 109 / 114 40% 1 23.08.2026 -
Santiago González Sporting Cristal Ativo 120 / 110 40% 1 18.08.2026 -
Valentín Fascendini Talleres Ativo 118 / 112 40% 1 16.08.2026 -
Jonathan Cañete Portuguesa Ativo 116 / 117 40% 1 14.08.2026 -
Ferland Mendy Real Madrid Ativo 127 / 149 40% 1 08.08.2026 -
Salomon Ramirez Atletico Venezuela Ativo 97 / 102 40% 1 08.08.2026 -
Jokin Gabilondo Zaragoza Ativo 93 / 114 40% 1 07.08.2026 -
José Pérez Portuguesa Ativo 84 / 94 40% 1 06.08.2026 -
José Barragán Zamora Ativo 106 / 98 40% 1 05.08.2026 -
Tobías Ganduglia Independiente Rivadavia Ativo 80 / 100 40% 1 05.08.2026 -
Ramiro Ruiz Rodríguez Atlético Tucumán Ativo 118 / 121 40% 1 04.08.2026 -
Leonel Bucca Independiente Rivadavia Ativo 105 / 116 40% 1 02.08.2026 -
Jon Guruzeta Eibar Ativo 121 / 105 40% 1 02.08.2026 -